首页
METAR-TAF:

METAR-TAF

机场 :

Dupage Airport

West Chicago, 伊利诺伊州, 美国

纬度: 41-53-47N, 经度: 088-15-04W, 海拔: 231米

当前天气观测

该预报发布于8分钟前的20:52 UTC
风速11节,风向西
温度 24°C
湿度 44%
气压 1016 hPa
能見度: 16.1公里
散云层高于6000英尺

METAR: KDPA 232052Z 28011KT 10SM SCT060 24/11 A3001 RMK AO2 SLP158 T02390106 58007

时间: 16:00 (21:00 UTC)

预报

该预报发布于3小时和22分钟前的17:38 UTC
预报有效从23日的 18点(UTC)到 24日的 18点(UTC)
风速12节,风向西转西北,有时为20节阵风
能見度: 10公里
少量云层高于3500英尺
从 24日的 0000点(UTC)
风速5节,风向西转西南
能見度: 10公里
天空无云
从 24日的 1400点(UTC)
风速11节,风向西南
能見度: 10公里
多云层高于3500英尺
从 24日的 1700点(UTC)
风速15节,风向西南,有时为23节阵风
能見度: 10公里
散云层高于5000英尺

TAF: KDPA 231738Z 2318/2418 29012G20KT P6SM FEW035 FM240000 25005KT P6SM SKC FM241400 22011KT P6SM BKN035 FM241700 22015G23KT P6SM SCT050

超过4000个机场的气象观测和天气预报(METAR&TAF报告)。

可查询的气象台以黄色和红色小点在地图上表示。

将鼠标移到小点上方,可查看气象台名称。

然后点击查看天气观测和预报。

如需切换地图:点击带黑十字的绿色按钮放大地图;点击带横线的绿色按钮缩小地图;或者点击绿色箭头查看邻近地区的地图。


METAR-TAF: